createdAt,value
2018-04-19T00:04:17.735Z,13.70
2018-04-19T00:10:22.113Z,13.50
2018-04-19T00:16:26.488Z,13.40
2018-04-19T00:22:30.889Z,13.20
2018-04-19T00:28:35.265Z,13.00
2018-04-19T00:34:39.818Z,12.90
2018-04-19T00:40:44.540Z,12.90
2018-04-19T00:46:48.999Z,12.90
2018-04-19T00:53:09.417Z,13.00
2018-04-19T00:59:14.000Z,12.90
2018-04-19T01:05:18.377Z,12.90
2018-04-19T01:11:22.778Z,13.10
2018-04-19T01:17:27.156Z,13.40
2018-04-19T01:23:31.649Z,13.60
2018-04-19T01:29:36.014Z,13.50
2018-04-19T01:35:58.188Z,13.50
2018-04-19T01:42:02.613Z,13.50
2018-04-19T01:48:06.999Z,13.40
2018-04-19T01:54:13.087Z,13.50
2018-04-19T02:00:18.273Z,13.40
2018-04-19T02:06:22.650Z,13.40
2018-04-19T02:12:27.096Z,13.40
2018-04-19T02:18:31.476Z,13.40
2018-04-19T02:24:35.849Z,13.40
2018-04-19T02:30:40.303Z,13.40
2018-04-19T02:36:45.550Z,13.10
2018-04-19T02:42:50.157Z,13.10
2018-04-19T02:48:54.573Z,13.10
2018-04-19T02:54:58.959Z,13.00
2018-04-19T03:01:03.344Z,12.90
2018-04-19T03:07:07.765Z,12.80
2018-04-19T03:13:12.383Z,12.70
2018-04-19T03:19:16.746Z,12.60
2018-04-19T03:25:21.150Z,12.60
2018-04-19T03:31:25.542Z,12.50
2018-04-19T03:37:30.075Z,12.50
2018-04-19T03:43:34.439Z,12.50
2018-04-19T03:49:39.858Z,12.50
2018-04-19T03:55:44.454Z,12.40
2018-04-19T04:01:48.929Z,12.40
2018-04-19T04:07:53.396Z,12.30
2018-04-19T04:13:57.796Z,12.30
2018-04-19T04:20:19.809Z,12.20
2018-04-19T04:26:24.210Z,12.20
2018-04-19T04:32:29.523Z,12.20
2018-04-19T04:38:33.899Z,12.20
2018-04-19T04:44:38.302Z,12.20
2018-04-19T04:50:42.936Z,12.10
2018-04-19T04:56:47.338Z,12.10
2018-04-19T05:02:52.544Z,12.00
2018-04-19T05:08:56.901Z,12.00
2018-04-19T05:15:01.394Z,11.90
2018-04-19T05:21:05.885Z,11.90
2018-04-19T05:27:10.261Z,11.90
2018-04-19T05:33:15.523Z,12.10
2018-04-19T05:39:20.332Z,12.10
2018-04-19T05:45:24.804Z,12.20
2018-04-19T05:51:29.195Z,12.30
2018-04-19T05:57:33.588Z,12.50
2018-04-19T06:03:37.974Z,12.70
2018-04-19T06:09:42.397Z,12.90
2018-04-19T06:15:46.766Z,13.20
2018-04-19T06:21:51.181Z,13.50
2018-04-19T06:27:55.564Z,13.80
2018-04-19T06:33:59.951Z,14.10
2018-04-19T06:40:04.364Z,14.40
2018-04-19T06:46:08.725Z,14.70
2018-04-19T06:52:13.304Z,15.20
2018-04-19T06:58:18.681Z,20.80
2018-04-19T07:04:24.631Z,21.60
2018-04-19T07:10:29.111Z,21.60
2018-04-19T07:16:33.507Z,20.30
2018-04-19T07:22:37.891Z,19.00
2018-04-19T07:28:42.483Z,18.80
2018-04-19T07:34:46.867Z,18.50
2018-04-19T07:40:51.294Z,18.70
2018-04-19T07:46:55.796Z,19.10
2018-04-19T07:53:00.191Z,19.70
2018-04-19T07:59:04.590Z,20.20
2018-04-19T08:05:09.733Z,21.00
2018-04-19T08:11:14.614Z,21.00
2018-04-19T08:17:18.987Z,21.30
2018-04-19T08:23:23.367Z,21.50
2018-04-19T08:29:27.830Z,22.00
2018-04-19T08:35:32.194Z,22.40
2018-04-19T08:41:37.761Z,22.60
2018-04-19T08:47:42.193Z,23.20
2018-04-19T08:53:46.582Z,23.70
2018-04-19T08:59:50.975Z,24.10
2018-04-19T09:05:55.375Z,24.30
2018-04-19T09:12:00.503Z,24.80
2018-04-19T09:18:04.872Z,24.80
2018-04-19T09:24:09.369Z,25.30
2018-04-19T09:30:13.948Z,25.50
2018-04-19T09:36:18.351Z,25.90
2018-04-19T09:42:22.726Z,26.10
2018-04-19T09:48:27.914Z,27.60
2018-04-19T09:54:32.326Z,27.60
2018-04-19T10:00:43.045Z,28.50
2018-04-19T10:06:48.181Z,29.30
2018-04-19T10:12:52.555Z,29.20
2018-04-19T10:18:57.028Z,29.80
2018-04-19T10:25:01.390Z,30.20
2018-04-19T10:31:05.777Z,31.00
2018-04-19T10:37:10.158Z,30.90
2018-04-19T10:43:14.563Z,31.30
2018-04-19T10:49:18.996Z,32.30
2018-04-19T10:55:23.373Z,32.40
2018-04-19T11:01:27.847Z,33.20
2018-04-19T11:07:32.243Z,33.70
2018-04-19T11:13:36.708Z,33.50
2018-04-19T11:19:41.908Z,34.60
2018-04-19T11:25:46.356Z,36.00
2018-04-19T11:31:51.512Z,36.30
2018-04-19T11:37:55.940Z,36.30
2018-04-19T11:44:00.303Z,36.10
2018-04-19T11:50:04.727Z,36.60
2018-04-19T11:56:09.160Z,37.10
2018-04-19T12:02:14.375Z,37.80
2018-04-19T12:08:18.828Z,37.80
2018-04-19T12:14:23.201Z,38.20
2018-04-19T12:20:27.588Z,37.90
2018-04-19T12:26:31.960Z,38.00
2018-04-19T12:32:36.336Z,37.80
2018-04-19T12:38:40.786Z,37.00
2018-04-19T12:44:45.191Z,37.30
2018-04-19T12:50:49.707Z,37.60
2018-04-19T12:56:54.136Z,38.50
2018-04-19T13:02:59.429Z,39.50
2018-04-19T13:09:04.719Z,39.00
2018-04-19T13:15:10.952Z,38.50
2018-04-19T13:21:15.433Z,38.50
2018-04-19T13:27:19.802Z,39.60
2018-04-19T13:33:24.239Z,39.80
2018-04-19T13:39:28.654Z,38.80
2018-04-19T13:45:33.039Z,38.70
2018-04-19T13:51:37.421Z,38.70
2018-04-19T13:57:42.027Z,38.40
2018-04-19T14:03:46.769Z,38.00
2018-04-19T14:09:51.145Z,39.00
2018-04-19T14:15:55.503Z,38.30
2018-04-19T14:22:00.646Z,37.80
2018-04-19T14:28:05.049Z,37.80
2018-04-19T14:34:09.481Z,38.40
2018-04-19T14:40:14.823Z,39.20
2018-04-19T14:46:19.182Z,39.10
2018-04-19T14:52:23.623Z,38.80
2018-04-19T14:58:27.999Z,39.60
2018-04-19T15:04:32.375Z,40.40
2018-04-19T15:10:36.751Z,40.30
2018-04-19T15:16:41.160Z,39.90
2018-04-19T15:22:45.657Z,39.90
2018-04-19T15:28:50.033Z,38.80
2018-04-19T15:34:54.463Z,39.20
2018-04-19T15:40:58.842Z,38.70
2018-04-19T15:47:03.304Z,39.00
2018-04-19T15:53:07.684Z,39.20
2018-04-19T15:59:12.111Z,38.60
2018-04-19T16:05:16.498Z,38.20
2018-04-19T16:11:21.700Z,38.40
2018-04-19T16:17:26.032Z,38.40
2018-04-19T16:23:30.407Z,38.70
2018-04-19T16:29:34.771Z,37.90
2018-04-19T16:35:39.141Z,38.50
2018-04-19T16:41:43.841Z,38.60
2018-04-19T16:47:48.269Z,38.40
2018-04-19T16:53:52.720Z,38.20
2018-04-19T16:59:57.886Z,36.90
2018-04-19T17:06:02.264Z,36.90
2018-04-19T17:12:06.664Z,36.30
2018-04-19T17:18:11.903Z,34.30
2018-04-19T17:24:16.321Z,34.30
2018-04-19T17:30:20.762Z,33.70
2018-04-19T17:36:25.131Z,32.80
2018-04-19T17:42:29.514Z,31.90
2018-04-19T17:48:33.894Z,30.80
2018-04-19T17:54:38.265Z,29.40
2018-04-19T18:00:42.945Z,27.60
2018-04-19T18:06:47.339Z,26.30
2018-04-19T18:12:51.706Z,24.80
2018-04-19T18:18:56.078Z,23.80
2018-04-19T18:25:00.475Z,23.00
2018-04-19T18:31:04.866Z,22.30
2018-04-19T18:37:10.024Z,21.30
2018-04-19T18:43:14.451Z,21.30
2018-04-19T18:49:19.609Z,20.70
2018-04-19T18:55:23.982Z,20.70
2018-04-19T19:01:28.368Z,20.50
2018-04-19T19:07:33.515Z,20.30
2018-04-19T19:13:37.989Z,20.20
2018-04-19T19:20:00.173Z,20.20
2018-04-19T19:26:04.559Z,20.10
2018-04-19T19:32:08.931Z,20.00
2018-04-19T19:38:13.369Z,19.50
2018-04-19T19:44:18.598Z,19.10
2018-04-19T19:50:22.980Z,19.00
2018-04-19T19:56:27.371Z,19.10
2018-04-19T20:02:31.789Z,19.10
2018-04-19T20:08:36.948Z,19.00
2018-04-19T20:14:41.339Z,18.90
2018-04-19T20:20:45.751Z,18.90
2018-04-19T20:26:51.007Z,18.50
2018-04-19T20:32:55.388Z,18.50
2018-04-19T20:38:59.819Z,18.30
2018-04-19T20:45:04.187Z,18.20
2018-04-19T20:51:08.582Z,18.10
2018-04-19T20:57:13.040Z,18.00
2018-04-19T21:03:17.506Z,17.80
2018-04-19T21:09:21.915Z,17.70
2018-04-19T21:15:26.284Z,17.70
2018-04-19T21:21:30.676Z,17.50
2018-04-19T21:27:35.115Z,17.40
2018-04-19T21:33:39.550Z,17.30
2018-04-19T21:39:44.032Z,17.30
2018-04-19T21:45:49.198Z,17.20
2018-04-19T21:51:53.626Z,17.10
2018-04-19T21:57:57.999Z,17.20
2018-04-19T22:04:03.206Z,16.90
2018-04-19T22:10:07.584Z,16.90
2018-04-19T22:16:12.386Z,16.80
2018-04-19T22:22:16.765Z,16.70
2018-04-19T22:28:21.143Z,16.50
2018-04-19T22:34:25.532Z,16.30
2018-04-19T22:40:29.960Z,16.10
2018-04-19T22:46:34.402Z,16.00
2018-04-19T22:52:38.863Z,15.90
2018-04-19T22:58:43.354Z,15.80
2018-04-19T23:04:47.780Z,15.80
2018-04-19T23:10:52.152Z,15.70
2018-04-19T23:16:56.625Z,15.70
2018-04-19T23:23:01.101Z,15.60
2018-04-19T23:29:05.465Z,15.50
2018-04-19T23:35:09.911Z,15.40
2018-04-19T23:41:14.435Z,15.30
2018-04-19T23:47:18.979Z,15.20
2018-04-19T23:53:23.389Z,15.20
2018-04-19T23:59:27.789Z,15.20
